Airport View

Enter AWOS ICAO identifier for current METAR.

ex. KFNL

KSEP 051315Z AUTO 19003KT 10SM CLR 24/19 A3004 RMK AO2 T02400190

5 Aug 2020 13:24

Frequency: 118.075

Phone: 254-965-8672

Other Area AWOS: KGDJ - K6P9 - KMKN - KMNZ

TAF KNFW 0507/0607 VRB06KT 9999 FEW300 QNH2990INS FM051300 VRB06KT 9999 VCTS SCT050CB BKN200 QNH2991NS TEMPO 0513/0515 VRB15G25KT 6000 -TSRA SCT025 BKN050CB BKN200 BECMG 0515/0517 09010KT 9999 SCT050 BKN200 QNH2994INS AUTOMATED SENSOR METWATCH 0507 TIL 0511 T23/0512Z T31/0521Z FN00210